Pagina principale
METAR-TAF:

METAR-TAF

Aeroporti :

Aeroporto di Vientiane-Wattay

Vientiane, Laos

latitudine: 17-57N, longitudine: 102-34E, altezza: 171 m

Osservazione

Il bollettino è stato emesso 32 minuti fa, alle 08:30 UTC
Vento 12 kt da ovest
Temperature 33°C
Umidità 59%
Pressione 1000 hPa
Visibilità 10 km o più
Nubi sparse ad un'altezza di 1600 ft
Nubi sparse ad un'altezza di 4000 ft

METAR: VLVT 220830Z 27012KT 9999 SCT016 SCT040 33/24 Q1000 NOSIG

Ora: 16:02 (09:02 UTC)

Previsione

Il bollettino è stato emesso 4 ore e 2 minuti fa, alle 05:00 UTC
Previsione valida dal 22 alle 06 UTC al 23 alle 06 UTC
Vento 6 kt da ovest
Visibilità 10 km o più
Nubi sparse ad un'altezza di 1600 ft
Nuvoloso ad un'altezza di 4000 ft
Temporaneamente
dal 22 alle 14 UTC al 22 alle 20 UTC
Visibilità: 4000 m
Poco nuvoloso ad un'altezza di 1600 ft
Nuvoloso ad un'altezza di 5000 ft
foschia

TAF: VLVT 220500Z 2206/2306 27006KT 9999 SCT016 BKN040 TEMPO 2214/2220 4000 BR FEW016 BKN050

Osservazioni e previsioni meteorologiche di più di 4000 aeroporti (messaggi METAR e TAF).

Le stazioni disponibili sono rappresentate dai dischi gialli e rossi sulla carta.

Puntare il mouse per vedere il nome della stazione.

Clicca sopra per visualizzare le osservazioni e previsioni meteorologiche.

Per cambiare la mappa : fare clic sui pulsanti verdi con una croce nera per ingrandire, il pulsante verde con un trattino per diminuire, o sulla freccia verde per le mappe adiacenti.


METAR-TAF: